createdAt,value
2019-05-19T00:01:39.897Z,99442.33
2019-05-19T00:04:10.655Z,99440.35
2019-05-19T00:06:41.618Z,99440.86
2019-05-19T00:09:12.302Z,99445.06
2019-05-19T00:11:43.025Z,99443.30
2019-05-19T00:14:13.700Z,99448.73
2019-05-19T00:16:44.462Z,99448.14
2019-05-19T00:19:26.336Z,99443.11
2019-05-19T00:21:47.834Z,99444.08
2019-05-19T00:24:18.853Z,99441.62
2019-05-19T00:26:50.063Z,99444.66
2019-05-19T00:29:20.729Z,99442.30
2019-05-19T00:31:51.404Z,99439.07
2019-05-19T00:34:22.077Z,99442.48
2019-05-19T00:36:53.158Z,99440.75
2019-05-19T00:39:23.894Z,99433.37
2019-05-19T00:41:54.667Z,99438.02
2019-05-19T00:44:25.348Z,99435.00
2019-05-19T00:46:56.395Z,99436.66
2019-05-19T00:49:40.595Z,99430.06
2019-05-19T00:51:59.905Z,99428.16
2019-05-19T00:54:30.948Z,99431.52
2019-05-19T00:57:04.899Z,99432.17
2019-05-19T00:59:36.949Z,99427.05
2019-05-19T01:02:07.633Z,99422.20
2019-05-19T01:04:38.676Z,99426.56
2019-05-19T01:07:10.025Z,99431.83
2019-05-19T01:09:40.964Z,99431.08
2019-05-19T01:12:11.724Z,99431.34
2019-05-19T01:14:42.396Z,99434.31
2019-05-19T01:17:13.451Z,99433.30
2019-05-19T01:19:55.165Z,99428.75
2019-05-19T01:22:16.877Z,99422.79
2019-05-19T01:24:48.122Z,99423.93
2019-05-19T01:27:19.170Z,99421.02
2019-05-19T01:29:50.229Z,99414.73
2019-05-19T01:32:21.364Z,99414.73
2019-05-19T01:34:52.408Z,99413.14
2019-05-19T01:37:23.488Z,99410.15
2019-05-19T01:39:54.236Z,99409.46
2019-05-19T01:42:25.318Z,99408.45
2019-05-19T01:44:56.011Z,99410.80
2019-05-19T01:47:26.997Z,99405.09
2019-05-19T01:50:16.498Z,99408.67
2019-05-19T01:52:30.391Z,99405.68
2019-05-19T01:55:01.192Z,99405.42
2019-05-19T01:57:32.164Z,99410.36
2019-05-19T02:00:03.551Z,99408.02
2019-05-19T02:02:35.871Z,99399.57
2019-05-19T02:05:10.118Z,99397.52
2019-05-19T02:07:41.286Z,99392.56
2019-05-19T02:10:12.477Z,99397.52
2019-05-19T02:12:43.517Z,99396.58
2019-05-19T02:15:16.388Z,99397.48
2019-05-19T02:17:47.458Z,99394.27
2019-05-19T02:20:32.169Z,99393.41
2019-05-19T02:22:51.176Z,99398.49
2019-05-19T02:25:22.653Z,99394.23
2019-05-19T02:27:53.321Z,99395.45
2019-05-19T02:30:24.287Z,99404.02
2019-05-19T02:32:55.417Z,99409.80
2019-05-19T02:35:26.305Z,99400.84
2019-05-19T02:37:57.025Z,99405.56
2019-05-19T02:40:30.240Z,99398.67
2019-05-19T02:43:02.048Z,99400.87
2019-05-19T02:45:36.129Z,99396.05
2019-05-19T02:48:07.449Z,99393.50
2019-05-19T02:50:51.456Z,99394.44
2019-05-19T02:53:15.466Z,99395.27
2019-05-19T02:55:47.135Z,99395.84
2019-05-19T02:58:18.754Z,99391.22
2019-05-19T03:00:49.448Z,99389.95
2019-05-19T03:03:20.134Z,99391.35
2019-05-19T03:05:50.818Z,99388.09
2019-05-19T03:08:21.500Z,99384.74
2019-05-19T03:10:52.507Z,99387.67
2019-05-19T03:13:23.181Z,99390.08
2019-05-19T03:15:53.894Z,99390.59
2019-05-19T03:18:24.562Z,99391.09
2019-05-19T03:21:09.752Z,99394.66
2019-05-19T03:23:28.000Z,99400.08
2019-05-19T03:25:58.736Z,99399.53
2019-05-19T03:28:29.398Z,99407.64
2019-05-19T03:31:08.021Z,99406.76
2019-05-19T03:33:40.350Z,99410.64
2019-05-19T03:36:11.137Z,99412.66
2019-05-19T03:38:41.843Z,99400.08
2019-05-19T03:41:12.541Z,99403.58
2019-05-19T03:43:43.564Z,99400.89
2019-05-19T03:46:14.272Z,99402.58
2019-05-19T03:48:44.926Z,99401.72
2019-05-19T03:51:30.283Z,99398.59
2019-05-19T03:53:48.352Z,99397.95
2019-05-19T03:56:19.036Z,99401.90
2019-05-19T03:58:50.110Z,99398.83
2019-05-19T04:01:21.368Z,99396.86
2019-05-19T04:03:52.518Z,99394.88
2019-05-19T04:06:23.394Z,99395.11
2019-05-19T04:08:54.126Z,99398.03
2019-05-19T04:11:24.964Z,99399.07
2019-05-19T04:13:55.736Z,99407.03
2019-05-19T04:16:26.800Z,99402.77
2019-05-19T04:18:57.751Z,99408.72
2019-05-19T04:21:28.461Z,99404.48
2019-05-19T04:23:59.152Z,99412.46
2019-05-19T04:26:29.863Z,99406.71
2019-05-19T04:29:00.956Z,99410.94
2019-05-19T04:31:32.024Z,99405.43
2019-05-19T04:34:02.694Z,99399.76
2019-05-19T04:36:33.390Z,99401.88
2019-05-19T04:39:05.748Z,99398.86
2019-05-19T04:41:40.035Z,99393.18
2019-05-19T04:44:10.118Z,99400.16
2019-05-19T04:46:40.811Z,99397.38
2019-05-19T04:49:11.849Z,99400.44
2019-05-19T04:51:42.548Z,99397.66
2019-05-19T04:54:13.225Z,99396.31
2019-05-19T04:56:44.016Z,99398.41
2019-05-19T04:59:14.688Z,99401.53
2019-05-19T05:01:45.388Z,99400.37
2019-05-19T05:04:16.529Z,99404.32
2019-05-19T05:06:47.208Z,99398.19
2019-05-19T05:09:17.894Z,99394.20
2019-05-19T05:11:48.566Z,99391.61
2019-05-19T05:14:19.578Z,99391.55
2019-05-19T05:16:50.604Z,99393.06
2019-05-19T05:19:21.610Z,99395.31
2019-05-19T05:21:52.342Z,99397.97
2019-05-19T05:24:23.031Z,99394.31
2019-05-19T05:26:53.743Z,99390.11
2019-05-19T05:29:24.794Z,99398.36
2019-05-19T05:31:55.486Z,99392.14
2019-05-19T05:34:26.141Z,99389.52
2019-05-19T05:36:56.932Z,99393.09
2019-05-19T05:39:27.625Z,99393.73
2019-05-19T05:41:58.500Z,99396.73
2019-05-19T05:44:29.627Z,99386.72
2019-05-19T05:47:00.617Z,99392.94
2019-05-19T05:49:31.358Z,99385.11
2019-05-19T05:52:02.429Z,99381.20
2019-05-19T05:54:33.565Z,99376.98
2019-05-19T05:57:04.255Z,99380.80
2019-05-19T05:59:34.955Z,99377.66
2019-05-19T06:02:05.633Z,99374.93
2019-05-19T06:04:36.316Z,99376.05
2019-05-19T06:07:07.021Z,99376.16
2019-05-19T06:09:38.034Z,99376.98
2019-05-19T06:12:09.845Z,99380.21
2019-05-19T06:14:40.946Z,99382.31
2019-05-19T06:17:11.742Z,99382.09
2019-05-19T06:19:42.443Z,99378.72
2019-05-19T06:22:13.135Z,99369.40
2019-05-19T06:24:44.124Z,99376.42
2019-05-19T06:27:15.150Z,99375.77
2019-05-19T06:29:45.928Z,99373.79
2019-05-19T06:32:18.545Z,99378.73
2019-05-19T06:34:49.288Z,99382.08
2019-05-19T06:37:22.587Z,99379.33
2019-05-19T06:39:53.297Z,99377.91
2019-05-19T06:42:24.009Z,99377.48
2019-05-19T06:44:54.987Z,99380.16
2019-05-19T06:47:26.036Z,99374.39
2019-05-19T06:49:58.501Z,99372.98
2019-05-19T06:52:29.515Z,99369.67
2019-05-19T06:55:00.554Z,99372.27
2019-05-19T06:57:32.267Z,99365.30
2019-05-19T07:00:03.341Z,99368.00
2019-05-19T07:02:34.179Z,99370.16
2019-05-19T07:05:07.969Z,99369.28
2019-05-19T07:07:39.186Z,99359.59
2019-05-19T07:10:10.674Z,99361.64
2019-05-19T07:12:41.369Z,99369.23
2019-05-19T07:15:13.159Z,99366.52
2019-05-19T07:17:44.080Z,99357.55
2019-05-19T07:20:15.455Z,99357.88
2019-05-19T07:22:46.160Z,99363.00
2019-05-19T07:25:17.227Z,99350.02
2019-05-19T07:27:47.941Z,99352.18
2019-05-19T07:30:19.502Z,99350.52
2019-05-19T07:32:50.229Z,99341.31
2019-05-19T07:35:21.231Z,99346.14
2019-05-19T07:37:52.134Z,99338.91
2019-05-19T07:40:23.218Z,99340.39
2019-05-19T07:42:54.042Z,99334.59
2019-05-19T07:45:25.520Z,99332.69
2019-05-19T07:47:56.609Z,99333.09
2019-05-19T07:50:27.644Z,99327.00
2019-05-19T07:52:58.672Z,99324.03
2019-05-19T07:55:29.708Z,99328.25
2019-05-19T07:58:00.719Z,99323.00
2019-05-19T08:00:31.459Z,99320.59
2019-05-19T08:03:02.142Z,99355.20
2019-05-19T08:05:33.460Z,99367.48
2019-05-19T08:08:04.548Z,99314.23
2019-05-19T08:10:35.349Z,99317.33
2019-05-19T08:13:06.133Z,99311.34
2019-05-19T08:15:36.837Z,99313.23
2019-05-19T08:18:08.087Z,99309.40
2019-05-19T08:20:38.931Z,99307.63
2019-05-19T08:23:09.614Z,99307.94
2019-05-19T08:25:40.492Z,99304.36
2019-05-19T08:28:11.195Z,99298.09
2019-05-19T08:30:42.157Z,99304.02
2019-05-19T08:33:14.332Z,99289.20
2019-05-19T08:35:45.160Z,99286.59
2019-05-19T08:38:15.899Z,99291.66
2019-05-19T08:40:46.979Z,99282.81
2019-05-19T08:43:17.701Z,99287.55
2019-05-19T08:45:48.671Z,99280.81
2019-05-19T08:48:19.718Z,99285.29
2019-05-19T08:50:50.721Z,99284.02
2019-05-19T08:53:21.728Z,99278.73
2019-05-19T08:55:52.674Z,99276.27
2019-05-19T08:58:23.684Z,99278.32
2019-05-19T09:00:54.384Z,99269.13
2019-05-19T09:03:25.371Z,99278.30
2019-05-19T09:05:57.182Z,99279.91
2019-05-19T09:08:27.971Z,99276.92
2019-05-19T09:11:02.245Z,99271.41
2019-05-19T09:13:33.260Z,99268.36
2019-05-19T09:16:05.022Z,99262.05
2019-05-19T09:18:36.078Z,99262.80
2019-05-19T09:21:06.755Z,99265.17
2019-05-19T09:23:37.848Z,99258.45
2019-05-19T09:26:08.525Z,99260.97
2019-05-19T09:28:39.231Z,99254.22
2019-05-19T09:31:10.306Z,99249.75
2019-05-19T09:33:41.014Z,99258.05
2019-05-19T09:36:12.043Z,99248.98
2019-05-19T09:38:42.733Z,99247.63
2019-05-19T09:41:13.836Z,99241.83
2019-05-19T09:43:44.537Z,99243.40
2019-05-19T09:46:15.203Z,99249.74
2019-05-19T09:48:46.271Z,99250.27
2019-05-19T09:51:18.305Z,99248.27
2019-05-19T09:53:49.329Z,99246.98
2019-05-19T09:56:20.536Z,99247.97
2019-05-19T09:58:51.507Z,99242.44
2019-05-19T10:01:22.195Z,99234.05
2019-05-19T10:03:53.213Z,99236.95
2019-05-19T10:06:24.210Z,99232.92
2019-05-19T10:08:57.538Z,99236.17
2019-05-19T10:12:02.784Z,99235.08
2019-05-19T10:14:33.701Z,99241.13
2019-05-19T10:17:05.209Z,99241.73
2019-05-19T10:19:36.969Z,99236.41
2019-05-19T10:22:07.800Z,99227.47
2019-05-19T10:24:38.531Z,99228.25
2019-05-19T10:27:09.610Z,99230.52
2019-05-19T10:29:40.292Z,99231.44
2019-05-19T10:32:12.411Z,99241.41
2019-05-19T10:34:43.567Z,99232.67
2019-05-19T10:37:15.517Z,99225.96
2019-05-19T10:39:46.268Z,99213.30
2019-05-19T10:42:16.936Z,99220.42
2019-05-19T10:44:47.685Z,99219.83
2019-05-19T10:47:18.622Z,99219.17
2019-05-19T10:49:49.616Z,99218.06
2019-05-19T10:52:20.306Z,99215.20
2019-05-19T10:54:51.275Z,99216.20
2019-05-19T10:57:22.010Z,99210.74
2019-05-19T10:59:53.388Z,99209.48
2019-05-19T11:02:24.471Z,99217.05
2019-05-19T11:04:55.505Z,99213.61
2019-05-19T11:07:26.196Z,99208.14
2019-05-19T11:09:57.314Z,99217.28
2019-05-19T11:12:28.327Z,99210.08
2019-05-19T11:14:59.357Z,99204.39
2019-05-19T11:17:30.394Z,99206.12
2019-05-19T11:20:01.067Z,99206.41
2019-05-19T11:22:32.063Z,99208.20
2019-05-19T11:25:02.748Z,99209.67
2019-05-19T11:27:33.668Z,99199.86
2019-05-19T11:30:06.488Z,99204.03
2019-05-19T11:32:37.209Z,99193.94
2019-05-19T11:35:08.590Z,99199.09
2019-05-19T11:37:39.252Z,99192.84
2019-05-19T11:40:10.445Z,99191.16
2019-05-19T11:42:41.127Z,99193.36
2019-05-19T11:45:12.168Z,99191.00
2019-05-19T11:47:43.189Z,99184.98
2019-05-19T11:50:14.043Z,99191.70
2019-05-19T11:52:45.232Z,99180.68
2019-05-19T11:55:16.413Z,99187.20
2019-05-19T11:57:47.114Z,99181.81
2019-05-19T12:00:18.749Z,99186.14
2019-05-19T12:02:50.042Z,99174.57
2019-05-19T12:05:21.054Z,99175.66
2019-05-19T12:07:52.025Z,99174.88
2019-05-19T12:10:22.748Z,99177.48
2019-05-19T12:12:53.704Z,99172.84
2019-05-19T12:15:25.115Z,99177.41
2019-05-19T12:17:56.078Z,99176.98
2019-05-19T12:20:27.018Z,99180.96
2019-05-19T12:22:57.729Z,99176.44
2019-05-19T12:25:28.482Z,99179.13
2019-05-19T12:27:59.551Z,99181.27
2019-05-19T12:30:30.400Z,99178.48
2019-05-19T12:33:01.413Z,99176.59
2019-05-19T12:35:32.128Z,99177.81
2019-05-19T12:38:03.187Z,99183.91
2019-05-19T12:40:33.899Z,99181.64
2019-05-19T12:43:04.812Z,99178.14
2019-05-19T12:45:36.151Z,99174.69
2019-05-19T12:48:07.031Z,99171.92
2019-05-19T12:50:37.955Z,99167.55
2019-05-19T12:53:10.043Z,99151.67
2019-05-19T12:55:41.149Z,99151.45
2019-05-19T12:58:13.514Z,99155.61
2019-05-19T13:00:44.697Z,99155.37
2019-05-19T13:03:17.360Z,99154.96
2019-05-19T13:05:48.050Z,99150.80
2019-05-19T13:08:19.097Z,99146.44
2019-05-19T13:10:49.786Z,99138.22
2019-05-19T13:13:21.117Z,99153.80
2019-05-19T13:15:51.837Z,99148.91
2019-05-19T13:18:22.502Z,99145.02
2019-05-19T13:20:53.266Z,99142.72
2019-05-19T13:23:25.199Z,99145.17
2019-05-19T13:25:56.341Z,99140.36
2019-05-19T13:28:27.289Z,99135.30
2019-05-19T13:30:57.997Z,99140.64
2019-05-19T13:33:28.861Z,99125.11
2019-05-19T13:35:59.570Z,99134.05
2019-05-19T13:38:30.636Z,99134.52
2019-05-19T13:41:01.320Z,99140.52
2019-05-19T13:43:32.398Z,99132.11
2019-05-19T13:46:03.156Z,99111.62
2019-05-19T13:48:34.259Z,99130.42
2019-05-19T13:51:04.959Z,99132.30
2019-05-19T13:53:36.003Z,99129.14
2019-05-19T13:56:07.010Z,99118.91
2019-05-19T13:58:37.704Z,99119.70
2019-05-19T14:01:08.939Z,99124.84
2019-05-19T14:03:39.865Z,99116.02
2019-05-19T14:06:10.549Z,99115.06
2019-05-19T14:08:41.284Z,99109.87
2019-05-19T14:11:12.031Z,99100.27
2019-05-19T14:13:43.347Z,99101.53
2019-05-19T14:16:14.027Z,99103.38
2019-05-19T14:18:44.989Z,99095.64
2019-05-19T14:21:16.005Z,99099.66
2019-05-19T14:23:47.063Z,99097.54
2019-05-19T14:26:17.864Z,99092.88
2019-05-19T14:28:49.032Z,99092.61
2019-05-19T14:31:19.754Z,99088.11
2019-05-19T14:33:50.510Z,99087.13
2019-05-19T14:36:21.580Z,99083.05
2019-05-19T14:39:05.270Z,99087.42
2019-05-19T14:41:36.291Z,99091.95
2019-05-19T14:44:07.271Z,99091.56
2019-05-19T14:46:38.024Z,99087.22
2019-05-19T14:49:08.749Z,99085.36
2019-05-19T14:51:39.547Z,99091.85
2019-05-19T14:54:10.520Z,99089.39
2019-05-19T14:56:41.222Z,99087.75
2019-05-19T14:59:11.976Z,99085.39
2019-05-19T15:01:43.528Z,99081.64
2019-05-19T15:04:14.310Z,99083.11
2019-05-19T15:06:45.020Z,99073.94
2019-05-19T15:09:15.726Z,99077.42
2019-05-19T15:11:46.865Z,99067.80
2019-05-19T15:14:17.626Z,99073.03
2019-05-19T15:16:48.989Z,99069.22
2019-05-19T15:19:19.698Z,99072.50
2019-05-19T15:21:50.411Z,99058.86
2019-05-19T15:24:21.690Z,99059.32
2019-05-19T15:26:52.455Z,99052.20
2019-05-19T15:29:23.285Z,99052.10
2019-05-19T15:31:54.404Z,99053.05
2019-05-19T15:34:25.415Z,99054.31
2019-05-19T15:36:56.099Z,99054.38
2019-05-19T15:39:26.834Z,99045.44
2019-05-19T15:41:58.043Z,99040.75
2019-05-19T15:44:29.743Z,99042.38
2019-05-19T15:47:00.415Z,99043.14
2019-05-19T15:49:31.410Z,99045.32
2019-05-19T15:52:04.796Z,99038.30
2019-05-19T15:54:34.753Z,99042.68
2019-05-19T15:57:05.803Z,99042.97
2019-05-19T15:59:36.521Z,99038.63
2019-05-19T16:02:07.609Z,99039.31
2019-05-19T16:04:38.712Z,99039.66
2019-05-19T16:07:09.396Z,99036.28
2019-05-19T16:09:40.093Z,99040.37
2019-05-19T16:12:11.129Z,99042.70
2019-05-19T16:14:41.961Z,99040.70
2019-05-19T16:17:12.990Z,99039.88
2019-05-19T16:19:43.707Z,99037.91
2019-05-19T16:22:14.469Z,99029.89
2019-05-19T16:24:45.603Z,99033.02
2019-05-19T16:27:16.407Z,99034.38
2019-05-19T16:29:47.134Z,99033.70
2019-05-19T16:32:19.258Z,99032.38
2019-05-19T16:34:49.968Z,99041.44
2019-05-19T16:37:20.877Z,99032.44
2019-05-19T16:39:51.962Z,99035.65
2019-05-19T16:42:23.727Z,99036.22
2019-05-19T16:44:54.808Z,99033.25
2019-05-19T16:47:25.805Z,99034.78
2019-05-19T16:49:56.982Z,99031.01
2019-05-19T16:52:27.915Z,99038.37
2019-05-19T16:55:16.954Z,99041.33
2019-05-19T16:57:47.622Z,99043.20
2019-05-19T17:00:19.223Z,99036.70
2019-05-19T17:02:49.990Z,99035.64
2019-05-19T17:05:20.967Z,99036.38
2019-05-19T17:07:52.352Z,99033.02
2019-05-19T17:10:23.097Z,99034.43
2019-05-19T17:12:53.933Z,99036.42
2019-05-19T17:15:25.055Z,99029.38
2019-05-19T17:17:55.767Z,99032.95
2019-05-19T17:20:26.659Z,99038.09
2019-05-19T17:22:57.652Z,99033.84
2019-05-19T17:25:28.434Z,99027.39
2019-05-19T17:27:59.821Z,99028.79
2019-05-19T17:30:31.683Z,99029.02
2019-05-19T17:33:02.645Z,99024.13
2019-05-19T17:35:33.734Z,99029.41
2019-05-19T17:38:04.416Z,99031.72
2019-05-19T17:40:35.165Z,99038.89
2019-05-19T17:43:05.839Z,99029.45
2019-05-19T17:45:36.522Z,99032.55
2019-05-19T17:48:10.181Z,99031.73
2019-05-19T17:50:39.978Z,99042.92
2019-05-19T17:53:10.994Z,99037.80
2019-05-19T17:55:43.344Z,99043.80
2019-05-19T17:58:14.360Z,99041.08
2019-05-19T18:00:45.118Z,99043.00
2019-05-19T18:03:15.815Z,99042.75
2019-05-19T18:05:47.038Z,99041.98
2019-05-19T18:08:17.825Z,99032.73
2019-05-19T18:10:48.624Z,99032.23
2019-05-19T18:13:19.675Z,99039.41
2019-05-19T18:15:50.345Z,99038.88
2019-05-19T18:18:21.014Z,99041.92
2019-05-19T18:20:52.986Z,99041.09
2019-05-19T18:23:24.353Z,99038.39
2019-05-19T18:25:55.481Z,99041.91
2019-05-19T18:28:27.365Z,99047.66
2019-05-19T18:30:58.460Z,99043.58
2019-05-19T18:33:29.185Z,99047.64
2019-05-19T18:36:00.274Z,99048.20
2019-05-19T18:38:31.316Z,99051.98
2019-05-19T18:41:02.435Z,99053.63
2019-05-19T18:43:33.609Z,99048.97
2019-05-19T18:46:04.612Z,99053.04
2019-05-19T18:48:35.609Z,99051.38
2019-05-19T18:51:07.839Z,99051.91
2019-05-19T18:53:38.866Z,99064.39
2019-05-19T18:56:09.571Z,99062.98
2019-05-19T18:58:40.567Z,99064.34
2019-05-19T19:01:11.686Z,99070.56
2019-05-19T19:03:42.817Z,99064.58
2019-05-19T19:06:13.979Z,99072.12
2019-05-19T19:08:45.105Z,99068.81
2019-05-19T19:11:15.967Z,99074.73
2019-05-19T19:13:47.095Z,99069.81
2019-05-19T19:16:19.095Z,99071.38
2019-05-19T19:18:50.206Z,99075.16
2019-05-19T19:21:21.237Z,99072.37
2019-05-19T19:23:52.086Z,99076.09
2019-05-19T19:26:23.260Z,99076.53
2019-05-19T19:28:54.242Z,99082.23
2019-05-19T19:31:25.277Z,99075.92
2019-05-19T19:33:56.841Z,99077.55
2019-05-19T19:36:27.919Z,99074.27
2019-05-19T19:38:58.650Z,99077.98
2019-05-19T19:41:29.754Z,99068.97
2019-05-19T19:44:00.785Z,99075.38
2019-05-19T19:46:32.975Z,99074.03
2019-05-19T19:49:03.893Z,99077.79
2019-05-19T19:51:34.587Z,99076.67
2019-05-19T19:54:05.793Z,99083.08
2019-05-19T19:56:36.455Z,99075.66
2019-05-19T19:59:07.159Z,99080.26
2019-05-19T20:01:38.199Z,99083.92
2019-05-19T20:04:10.077Z,99088.20
2019-05-19T20:06:40.736Z,99084.02
2019-05-19T20:09:14.109Z,99083.34
2019-05-19T20:11:45.248Z,99087.03
2019-05-19T20:14:16.559Z,99078.54
2019-05-19T20:16:47.700Z,99078.96
2019-05-19T20:19:19.666Z,99078.67
2019-05-19T20:21:52.027Z,99079.06
2019-05-19T20:24:22.963Z,99078.37
2019-05-19T20:26:54.028Z,99073.64
2019-05-19T20:29:25.035Z,99074.14
2019-05-19T20:31:55.999Z,99074.62
2019-05-19T20:34:26.663Z,99079.47
2019-05-19T20:36:57.646Z,99071.44
2019-05-19T20:39:28.424Z,99081.87
2019-05-19T20:41:59.363Z,99074.73
2019-05-19T20:44:30.378Z,99074.44
2019-05-19T20:47:01.027Z,99072.16
2019-05-19T20:49:31.729Z,99069.86
2019-05-19T20:52:02.706Z,99069.63
2019-05-19T20:54:33.859Z,99071.45
2019-05-19T20:57:04.544Z,99068.75
2019-05-19T20:59:35.611Z,99070.86
2019-05-19T21:02:06.555Z,99067.66
2019-05-19T21:04:37.262Z,99070.53
2019-05-19T21:07:08.241Z,99067.17
2019-05-19T21:09:39.262Z,99073.72
2019-05-19T21:12:10.297Z,99075.50
2019-05-19T21:14:42.012Z,99068.09
2019-05-19T21:17:13.090Z,99065.63
2019-05-19T21:19:45.384Z,99066.41
2019-05-19T21:22:16.067Z,99059.61
2019-05-19T21:24:47.130Z,99065.30
2019-05-19T21:27:17.812Z,99059.38
2019-05-19T21:29:48.677Z,99060.25
2019-05-19T21:32:19.672Z,99072.67
2019-05-19T21:34:50.756Z,99065.15
2019-05-19T21:37:21.803Z,99069.61
2019-05-19T21:39:52.869Z,99072.90
2019-05-19T21:42:23.774Z,99071.59
2019-05-19T21:44:54.463Z,99072.16
2019-05-19T21:47:25.196Z,99071.22
2019-05-19T21:49:56.235Z,99074.92
2019-05-19T21:52:26.906Z,99072.07
2019-05-19T21:54:58.096Z,99069.93
2019-05-19T21:57:29.231Z,99075.13
2019-05-19T22:00:00.279Z,99072.14
2019-05-19T22:02:31.383Z,99074.61
2019-05-19T22:05:02.117Z,99078.95
2019-05-19T22:07:50.887Z,99078.89
2019-05-19T22:10:23.384Z,99078.20
2019-05-19T22:12:54.082Z,99075.52
2019-05-19T22:15:25.210Z,99073.68
2019-05-19T22:17:55.866Z,99078.72
2019-05-19T22:20:26.596Z,99074.69
2019-05-19T22:22:57.267Z,99081.47
2019-05-19T22:25:27.938Z,99088.38
2019-05-19T22:27:59.904Z,99091.94
2019-05-19T22:30:30.863Z,99095.50
2019-05-19T22:33:02.001Z,99099.54
2019-05-19T22:35:33.922Z,99096.27
2019-05-19T22:38:05.014Z,99096.45
2019-05-19T22:40:36.034Z,99092.97
2019-05-19T22:43:07.103Z,99091.39
2019-05-19T22:45:38.114Z,99096.27
2019-05-19T22:48:10.071Z,99087.32
2019-05-19T22:50:40.723Z,99089.41
2019-05-19T22:53:11.435Z,99084.48
2019-05-19T22:55:42.381Z,99082.80
2019-05-19T22:58:13.398Z,99078.45
2019-05-19T23:00:44.456Z,99080.66
2019-05-19T23:03:15.140Z,99079.98
2019-05-19T23:05:46.105Z,99078.75
2019-05-19T23:08:17.762Z,99082.27
2019-05-19T23:10:48.713Z,99092.99
2019-05-19T23:13:19.780Z,99091.16
2019-05-19T23:15:50.571Z,99090.72
2019-05-19T23:18:21.525Z,99088.27
2019-05-19T23:20:52.622Z,99098.05
2019-05-19T23:23:23.364Z,99099.72
2019-05-19T23:25:55.120Z,99109.19
2019-05-19T23:28:26.950Z,99110.37
2019-05-19T23:30:57.817Z,99123.81
2019-05-19T23:33:28.495Z,99129.14
2019-05-19T23:35:59.566Z,99127.71
2019-05-19T23:38:30.776Z,99122.69
2019-05-19T23:41:01.808Z,99121.78
2019-05-19T23:43:32.856Z,99113.62
2019-05-19T23:46:03.570Z,99122.85
2019-05-19T23:48:34.232Z,99118.73
2019-05-19T23:51:05.250Z,99116.59
2019-05-19T23:53:36.017Z,99112.84
2019-05-19T23:56:07.457Z,99104.41
2019-05-19T23:58:38.479Z,99097.18
